createdAt,value
2018-05-31T00:01:06.194Z,18.36
2018-05-31T00:03:33.625Z,18.41
2018-05-31T00:06:01.070Z,18.45
2018-05-31T00:08:28.591Z,18.51
2018-05-31T00:10:56.069Z,18.46
2018-05-31T00:13:23.524Z,18.46
2018-05-31T00:15:50.973Z,18.53
2018-05-31T00:18:19.004Z,18.57
2018-05-31T00:20:46.440Z,18.54
2018-05-31T00:23:13.926Z,18.48
2018-05-31T00:25:41.495Z,18.43
2018-05-31T00:28:08.981Z,18.42
2018-05-31T00:30:36.436Z,18.37
2018-05-31T00:33:03.930Z,18.28
2018-05-31T00:35:31.504Z,18.23
2018-05-31T00:37:59.057Z,18.20
2018-05-31T00:40:26.528Z,18.19
2018-05-31T00:42:53.966Z,18.21
2018-05-31T00:45:21.376Z,18.20
2018-05-31T00:47:48.818Z,18.15
2018-05-31T00:50:16.305Z,18.03
2018-05-31T00:52:43.714Z,17.91
2018-05-31T00:55:12.331Z,17.85
2018-05-31T00:57:39.738Z,17.75
2018-05-31T01:00:10.733Z,17.71
2018-05-31T01:02:38.232Z,17.69
2018-05-31T01:05:05.662Z,17.61
2018-05-31T01:07:33.129Z,17.46
2018-05-31T01:10:00.547Z,17.49
2018-05-31T01:12:27.993Z,17.53
2018-05-31T01:14:55.477Z,17.33
2018-05-31T01:17:22.933Z,17.12
2018-05-31T01:19:50.401Z,17.03
2018-05-31T01:22:17.881Z,17.00
2018-05-31T01:24:45.312Z,17.08
2018-05-31T01:27:12.951Z,17.21
2018-05-31T01:29:40.400Z,17.29
2018-05-31T01:32:07.939Z,17.28
2018-05-31T01:34:35.310Z,17.26
2018-05-31T01:37:02.794Z,17.24
2018-05-31T01:39:30.236Z,17.09
2018-05-31T01:41:57.740Z,17.00
2018-05-31T01:44:25.236Z,16.96
2018-05-31T01:46:52.739Z,16.73
2018-05-31T01:49:20.228Z,16.46
2018-05-31T01:51:47.805Z,16.43
2018-05-31T01:54:15.259Z,16.53
2018-05-31T01:56:42.692Z,16.61
2018-05-31T01:59:10.124Z,16.70
2018-05-31T02:01:37.592Z,16.78
2018-05-31T02:04:05.032Z,16.80
2018-05-31T02:06:32.448Z,16.85
2018-05-31T02:09:01.095Z,16.98
2018-05-31T02:11:28.528Z,17.03
2018-05-31T02:13:56.019Z,17.13
2018-05-31T02:16:23.511Z,17.13
2018-05-31T02:18:50.956Z,17.17
2018-05-31T02:21:18.399Z,17.19
2018-05-31T02:23:46.661Z,17.23
2018-05-31T02:26:14.158Z,17.23
2018-05-31T02:28:43.275Z,17.29
2018-05-31T02:31:10.728Z,17.28
2018-05-31T02:33:39.377Z,17.34
2018-05-31T02:36:06.803Z,17.40
2018-05-31T02:38:34.245Z,17.42
2018-05-31T02:41:01.730Z,17.39
2018-05-31T02:43:29.217Z,17.34
2018-05-31T02:45:56.735Z,17.26
2018-05-31T02:48:24.183Z,17.22
2018-05-31T02:50:51.638Z,17.27
2018-05-31T02:53:19.136Z,17.34
2018-05-31T02:55:46.572Z,17.35
2018-05-31T02:58:14.024Z,17.28
2018-05-31T03:00:41.490Z,17.28
2018-05-31T03:03:09.712Z,17.27
2018-05-31T03:05:37.195Z,17.30
2018-05-31T03:08:04.650Z,17.38
2018-05-31T03:10:32.184Z,17.39
2018-05-31T03:12:59.669Z,17.35
2018-05-31T03:15:27.100Z,17.29
2018-05-31T03:17:55.193Z,17.14
2018-05-31T03:20:22.665Z,17.03
2018-05-31T03:22:50.160Z,17.10
2018-05-31T03:25:17.635Z,17.15
2018-05-31T03:27:45.206Z,16.91
2018-05-31T03:30:12.957Z,16.87
2018-05-31T03:32:40.463Z,16.77
2018-05-31T03:35:07.912Z,16.63
2018-05-31T03:37:36.333Z,16.67
2018-05-31T03:40:03.814Z,16.69
2018-05-31T03:42:31.327Z,16.63
2018-05-31T03:44:58.796Z,16.69
2018-05-31T03:47:26.271Z,16.77
2018-05-31T03:49:53.703Z,16.74
2018-05-31T03:52:22.916Z,16.70
2018-05-31T03:54:50.429Z,16.64
2018-05-31T03:57:17.930Z,16.61
2018-05-31T03:59:46.469Z,16.66
2018-05-31T04:02:13.993Z,16.77
2018-05-31T04:04:41.438Z,16.78
2018-05-31T04:07:09.711Z,16.76
2018-05-31T04:09:37.163Z,16.73
2018-05-31T04:12:04.758Z,16.81
2018-05-31T04:14:32.202Z,16.84
2018-05-31T04:16:59.652Z,16.84
2018-05-31T04:19:27.082Z,16.74
2018-05-31T04:21:54.538Z,16.75
2018-05-31T04:24:22.077Z,16.87
2018-05-31T04:26:49.547Z,16.93
2018-05-31T04:29:17.169Z,17.01
2018-05-31T04:31:44.816Z,17.10
2018-05-31T04:34:12.441Z,17.14
2018-05-31T04:36:46.562Z,17.07
2018-05-31T04:39:13.980Z,17.01
2018-05-31T04:41:41.394Z,16.94
2018-05-31T04:44:08.838Z,17.03
2018-05-31T04:46:36.343Z,17.21
2018-05-31T04:49:03.886Z,17.32
2018-05-31T04:51:31.299Z,17.38
2018-05-31T04:54:01.817Z,17.49
2018-05-31T04:56:29.303Z,17.63
2018-05-31T04:58:56.720Z,17.74
2018-05-31T05:01:24.268Z,17.80
2018-05-31T05:03:51.748Z,17.83
2018-05-31T05:06:19.234Z,17.91
2018-05-31T05:08:46.777Z,18.03
2018-05-31T05:11:14.254Z,18.11
2018-05-31T05:13:43.059Z,18.21
2018-05-31T05:16:10.621Z,18.28
2018-05-31T05:18:38.201Z,18.36
2018-05-31T05:21:05.766Z,18.45
2018-05-31T05:23:33.257Z,18.44
2018-05-31T05:26:00.746Z,18.58
2018-05-31T05:28:28.211Z,18.72
2018-05-31T05:30:55.695Z,18.93
2018-05-31T05:33:23.180Z,19.08
2018-05-31T05:35:50.631Z,19.22
2018-05-31T05:38:18.093Z,19.36
2018-05-31T05:40:45.645Z,19.54
2018-05-31T05:43:17.764Z,19.60
2018-05-31T05:45:45.202Z,19.71
2018-05-31T05:48:12.781Z,19.78
2018-05-31T05:50:40.613Z,19.86
2018-05-31T05:53:08.130Z,19.87
2018-05-31T05:55:35.634Z,19.89
2018-05-31T05:58:03.213Z,19.89
2018-05-31T06:00:30.631Z,19.94
2018-05-31T06:02:58.119Z,19.69
2018-05-31T06:05:25.642Z,19.48
2018-05-31T06:07:53.107Z,19.40
2018-05-31T06:10:20.656Z,19.38
2018-05-31T06:12:48.187Z,19.46
2018-05-31T06:15:15.660Z,19.48
2018-05-31T06:17:43.180Z,19.55
2018-05-31T06:20:10.630Z,19.58
2018-05-31T06:22:39.003Z,19.75
2018-05-31T06:25:06.464Z,19.99
2018-05-31T06:27:33.908Z,20.17
2018-05-31T06:30:01.431Z,20.31
2018-05-31T06:32:32.617Z,20.36
2018-05-31T06:35:00.088Z,20.50
2018-05-31T06:37:28.017Z,20.59
2018-05-31T06:39:55.512Z,20.81
2018-05-31T06:42:23.976Z,21.00
2018-05-31T06:44:51.630Z,21.12
2018-05-31T06:47:19.057Z,21.20
2018-05-31T06:49:46.520Z,21.28
2018-05-31T06:52:14.029Z,21.48
2018-05-31T06:54:41.486Z,21.70
2018-05-31T06:57:08.949Z,21.76
2018-05-31T06:59:36.479Z,21.92
2018-05-31T07:02:03.901Z,22.09
2018-05-31T07:04:31.362Z,22.39
2018-05-31T07:06:58.844Z,22.30
2018-05-31T07:09:26.326Z,22.12
2018-05-31T07:11:53.846Z,22.53
2018-05-31T07:14:21.261Z,22.99
2018-05-31T07:16:48.862Z,23.39
2018-05-31T07:19:22.103Z,23.45
2018-05-31T07:21:49.653Z,23.55
2018-05-31T07:24:17.098Z,23.42
2018-05-31T07:26:44.701Z,23.25
2018-05-31T07:29:12.191Z,23.10
2018-05-31T07:31:39.770Z,23.24
2018-05-31T07:34:07.200Z,23.38
2018-05-31T07:36:34.689Z,23.36
2018-05-31T07:39:02.138Z,23.29
2018-05-31T07:41:29.737Z,23.48
2018-05-31T07:43:57.207Z,23.49
2018-05-31T07:46:24.982Z,23.72
2018-05-31T07:48:52.521Z,24.07
2018-05-31T07:51:20.180Z,24.13
2018-05-31T07:53:48.747Z,23.98
2018-05-31T07:56:16.333Z,24.14
2018-05-31T07:58:43.807Z,24.55
2018-05-31T08:01:11.432Z,24.51
2018-05-31T08:03:38.959Z,24.82
2018-05-31T08:06:07.643Z,25.00
2018-05-31T08:08:35.886Z,25.44
2018-05-31T08:11:03.457Z,25.37
2018-05-31T08:13:30.971Z,25.36
2018-05-31T08:15:58.431Z,25.36
2018-05-31T08:18:25.870Z,25.24
2018-05-31T08:20:55.073Z,25.03
2018-05-31T08:23:22.548Z,25.18
2018-05-31T08:25:50.894Z,25.45
2018-05-31T08:28:18.482Z,25.70
2018-05-31T08:30:45.895Z,25.86
2018-05-31T08:33:13.377Z,25.72
2018-05-31T08:35:41.751Z,25.92
2018-05-31T08:38:09.218Z,26.05
2018-05-31T08:40:36.866Z,26.27
2018-05-31T08:43:04.338Z,26.26
2018-05-31T08:45:31.756Z,26.06
2018-05-31T08:47:59.188Z,26.09
2018-05-31T08:50:26.777Z,25.99
2018-05-31T08:52:54.199Z,25.85
2018-05-31T08:55:21.671Z,26.14
2018-05-31T08:57:49.125Z,25.86
2018-05-31T09:00:16.651Z,25.84
2018-05-31T09:02:44.156Z,25.67
2018-05-31T09:05:11.607Z,25.71
2018-05-31T09:07:39.441Z,25.35
2018-05-31T09:10:06.869Z,25.31
2018-05-31T09:12:34.407Z,25.74
2018-05-31T09:15:01.950Z,26.25
2018-05-31T09:17:30.411Z,26.28
2018-05-31T09:19:57.823Z,26.23
2018-05-31T09:22:25.289Z,26.30
2018-05-31T09:24:52.917Z,26.37
2018-05-31T09:27:20.396Z,26.54
2018-05-31T09:29:47.901Z,26.62
2018-05-31T09:32:15.376Z,26.84
2018-05-31T09:34:42.802Z,26.97
2018-05-31T09:37:11.226Z,26.80
2018-05-31T09:39:38.765Z,26.86
2018-05-31T09:42:07.259Z,26.69
2018-05-31T09:44:34.802Z,26.59
2018-05-31T09:47:02.205Z,26.04
2018-05-31T09:49:29.642Z,25.84
2018-05-31T09:51:57.157Z,25.92
2018-05-31T09:54:24.599Z,26.16
2018-05-31T09:56:52.127Z,26.03
2018-05-31T09:59:19.668Z,25.83
2018-05-31T10:01:47.288Z,25.70
2018-05-31T10:04:14.822Z,25.75
2018-05-31T10:06:42.409Z,25.85
2018-05-31T10:09:09.875Z,26.10
2018-05-31T10:11:37.361Z,26.08
2018-05-31T10:14:04.905Z,25.82
2018-05-31T10:16:32.451Z,25.51
2018-05-31T10:18:59.943Z,25.51
2018-05-31T10:21:27.551Z,25.19
2018-05-31T10:23:55.075Z,25.17
2018-05-31T10:26:23.280Z,25.06
2018-05-31T10:28:51.083Z,25.18
2018-05-31T10:31:18.481Z,25.07
2018-05-31T10:33:45.976Z,25.20
2018-05-31T10:36:13.556Z,25.20
2018-05-31T10:38:41.034Z,25.04
2018-05-31T10:41:08.512Z,25.00
2018-05-31T10:43:36.095Z,25.09
2018-05-31T10:46:03.512Z,25.32
2018-05-31T10:48:31.026Z,25.30
2018-05-31T10:51:00.279Z,25.35
2018-05-31T10:53:28.436Z,25.19
2018-05-31T10:55:55.945Z,24.76
2018-05-31T10:58:23.424Z,24.70
2018-05-31T11:00:51.064Z,24.90
2018-05-31T11:03:22.194Z,25.07
2018-05-31T11:05:49.582Z,25.29
2018-05-31T11:08:17.019Z,25.50
2018-05-31T11:10:46.062Z,25.67
2018-05-31T11:13:13.510Z,25.63
2018-05-31T11:15:42.791Z,25.73
2018-05-31T11:18:10.260Z,25.82
2018-05-31T11:20:38.483Z,25.95
2018-05-31T11:23:06.190Z,26.00
2018-05-31T11:25:33.768Z,26.22
2018-05-31T11:28:01.261Z,26.53
2018-05-31T11:30:28.778Z,26.73
2018-05-31T11:32:56.233Z,26.74
2018-05-31T11:35:23.222Z,26.87
2018-05-31T11:37:50.211Z,26.98
2018-05-31T11:40:17.272Z,27.22
2018-05-31T11:42:44.302Z,27.19
2018-05-31T11:45:11.784Z,27.35
2018-05-31T11:47:39.203Z,27.27
2018-05-31T11:50:06.361Z,27.18
2018-05-31T11:52:33.962Z,27.09
2018-05-31T11:55:01.487Z,27.04
2018-05-31T11:57:28.441Z,26.99
2018-05-31T11:59:57.262Z,26.96
2018-05-31T12:02:24.290Z,26.81
2018-05-31T12:04:51.226Z,26.67
2018-05-31T12:07:18.338Z,26.70
2018-05-31T12:09:45.560Z,26.73
2018-05-31T12:12:12.681Z,26.55
2018-05-31T12:14:40.344Z,26.64
2018-05-31T12:17:08.004Z,26.64
2018-05-31T12:19:35.522Z,26.96
2018-05-31T12:22:02.466Z,27.00
2018-05-31T12:24:29.517Z,26.96
2018-05-31T12:26:56.529Z,27.22
2018-05-31T12:29:23.622Z,27.11
2018-05-31T12:31:50.608Z,27.26
2018-05-31T12:34:17.637Z,27.66
2018-05-31T12:36:45.865Z,27.69
2018-05-31T12:39:12.987Z,27.57
2018-05-31T12:41:40.380Z,27.16
2018-05-31T12:44:07.900Z,27.15
2018-05-31T12:46:34.915Z,27.60
2018-05-31T12:49:01.913Z,28.16
2018-05-31T12:51:29.015Z,28.12
2018-05-31T12:53:56.091Z,28.01
2018-05-31T12:56:23.222Z,27.44
2018-05-31T12:58:51.366Z,27.09
2018-05-31T13:01:19.000Z,26.65
2018-05-31T13:03:46.454Z,26.89
2018-05-31T13:06:13.932Z,26.87
2018-05-31T13:08:41.440Z,26.44
2018-05-31T13:11:08.929Z,26.41
2018-05-31T13:13:36.566Z,26.60
2018-05-31T13:16:04.068Z,26.83
2018-05-31T13:18:31.051Z,27.03
2018-05-31T13:20:58.142Z,26.84
2018-05-31T13:23:25.160Z,26.65
2018-05-31T13:25:52.118Z,26.35
2018-05-31T13:28:19.410Z,26.40
2018-05-31T13:30:46.395Z,26.38
2018-05-31T13:33:13.528Z,26.01
2018-05-31T13:35:40.543Z,25.19
2018-05-31T13:38:08.090Z,25.03
2018-05-31T13:40:35.677Z,24.87
2018-05-31T13:43:03.236Z,24.69
2018-05-31T13:45:30.708Z,24.59
2018-05-31T13:47:58.256Z,24.43
2018-05-31T13:50:25.705Z,24.04
2018-05-31T13:52:53.290Z,23.83
2018-05-31T13:55:21.977Z,23.70
2018-05-31T13:57:50.199Z,23.52
2018-05-31T14:00:17.659Z,23.32
2018-05-31T14:02:45.203Z,23.26
2018-05-31T14:05:12.694Z,23.18
2018-05-31T14:07:40.216Z,23.13
2018-05-31T14:10:07.215Z,23.06
2018-05-31T14:12:35.501Z,23.04
2018-05-31T14:15:02.500Z,22.72
2018-05-31T14:17:29.959Z,22.52
2018-05-31T14:19:57.416Z,22.35
2018-05-31T14:22:24.854Z,21.92
2018-05-31T14:24:52.395Z,21.31
2018-05-31T14:27:19.843Z,21.22
2018-05-31T14:29:48.613Z,21.68
2018-05-31T14:32:16.084Z,22.05
2018-05-31T14:34:43.651Z,22.10
2018-05-31T14:37:11.832Z,22.26
2018-05-31T14:39:39.017Z,22.67
2018-05-31T14:42:06.472Z,23.02
2018-05-31T14:44:33.541Z,23.43
2018-05-31T14:47:00.564Z,23.72
2018-05-31T14:49:27.512Z,23.98
2018-05-31T14:51:55.083Z,24.03
2018-05-31T14:54:22.106Z,24.48
2018-05-31T14:56:50.094Z,24.87
2018-05-31T14:59:17.660Z,25.23
2018-05-31T15:01:46.093Z,25.37
2018-05-31T15:04:13.809Z,25.63
2018-05-31T15:06:41.259Z,25.89
2018-05-31T15:09:08.801Z,25.87
2018-05-31T15:11:36.920Z,25.75
2018-05-31T15:14:04.924Z,25.71
2018-05-31T15:16:32.379Z,25.75
2018-05-31T15:18:59.885Z,25.61
2018-05-31T15:21:27.295Z,25.24
2018-05-31T15:23:55.294Z,24.50
2018-05-31T15:26:22.907Z,24.09
2018-05-31T15:28:50.483Z,24.07
2018-05-31T15:31:18.187Z,23.83
2018-05-31T15:33:45.701Z,23.47
2018-05-31T15:36:13.166Z,23.31
2018-05-31T15:38:41.549Z,23.34
2018-05-31T15:41:09.091Z,23.29
2018-05-31T15:43:37.251Z,23.02
2018-05-31T15:46:04.703Z,22.66
2018-05-31T15:48:32.156Z,22.64
2018-05-31T15:50:59.676Z,22.42
2018-05-31T15:53:27.239Z,22.27
2018-05-31T15:55:54.691Z,22.28
2018-05-31T15:58:22.190Z,22.42
2018-05-31T16:00:49.719Z,22.54
2018-05-31T16:03:18.976Z,22.41
2018-05-31T16:05:46.700Z,22.23
2018-05-31T16:08:17.067Z,22.06
2018-05-31T16:10:44.581Z,21.81
2018-05-31T16:13:12.972Z,20.84
2018-05-31T16:15:40.399Z,20.10
2018-05-31T16:18:07.989Z,19.88
2018-05-31T16:20:35.444Z,19.70
2018-05-31T16:23:03.429Z,19.46
2018-05-31T16:25:30.943Z,19.11
2018-05-31T16:27:58.396Z,17.81
2018-05-31T16:30:25.878Z,16.59
2018-05-31T16:32:53.360Z,16.08
2018-05-31T16:35:22.619Z,15.93
2018-05-31T16:37:50.135Z,15.97
2018-05-31T16:40:17.598Z,16.15
2018-05-31T16:42:45.806Z,16.37
2018-05-31T16:45:13.211Z,16.52
2018-05-31T16:47:40.631Z,16.56
2018-05-31T16:50:08.339Z,16.64
2018-05-31T16:52:35.825Z,16.75
2018-05-31T16:55:03.232Z,16.93
2018-05-31T16:57:30.699Z,17.06
2018-05-31T16:59:58.301Z,17.17
2018-05-31T17:02:25.796Z,17.30
2018-05-31T17:04:53.216Z,17.15
2018-05-31T17:07:20.716Z,16.98
2018-05-31T17:09:48.171Z,16.93
2018-05-31T17:12:15.811Z,16.90
2018-05-31T17:14:43.301Z,17.07
2018-05-31T17:17:10.815Z,17.28
2018-05-31T17:19:39.279Z,17.14
2018-05-31T17:22:06.734Z,16.96
2018-05-31T17:24:34.178Z,17.06
2018-05-31T17:27:01.722Z,17.28
2018-05-31T17:29:29.133Z,17.49
2018-05-31T17:31:59.232Z,17.68
2018-05-31T17:34:26.971Z,17.79
2018-05-31T17:36:54.653Z,17.80
2018-05-31T17:39:22.251Z,17.86
2018-05-31T17:41:49.715Z,17.90
2018-05-31T17:44:17.187Z,17.97
2018-05-31T17:46:45.774Z,17.94
2018-05-31T17:49:13.258Z,17.96
2018-05-31T17:51:41.028Z,17.98
2018-05-31T17:54:08.495Z,17.95
2018-05-31T17:56:35.935Z,17.97
2018-05-31T17:59:06.141Z,17.97
2018-05-31T18:01:33.566Z,17.99
2018-05-31T18:04:01.311Z,18.08
2018-05-31T18:06:29.382Z,18.12
2018-05-31T18:08:56.846Z,18.20
2018-05-31T18:11:25.834Z,18.23
2018-05-31T18:13:53.647Z,18.21
2018-05-31T18:16:21.109Z,18.32
2018-05-31T18:18:48.691Z,18.37
2018-05-31T18:21:16.331Z,18.42
2018-05-31T18:23:44.584Z,18.42
2018-05-31T18:26:12.036Z,18.41
2018-05-31T18:28:39.501Z,18.24
2018-05-31T18:31:06.923Z,18.16
2018-05-31T18:33:34.368Z,18.22
2018-05-31T18:36:02.001Z,18.22
2018-05-31T18:38:29.555Z,18.26
2018-05-31T18:40:57.052Z,18.23
2018-05-31T18:45:58.215Z,18.05
2018-05-31T18:48:25.685Z,18.03
2018-05-31T18:50:53.087Z,18.04
2018-05-31T18:53:20.529Z,18.09
2018-05-31T18:55:48.008Z,18.14
2018-05-31T18:58:16.609Z,18.23
2018-05-31T19:00:44.138Z,18.22
2018-05-31T19:03:12.848Z,18.27
2018-05-31T19:05:42.339Z,18.26
2018-05-31T19:08:09.811Z,18.16
2018-05-31T19:10:37.281Z,18.09
2018-05-31T19:13:10.211Z,18.08
2018-05-31T19:15:37.804Z,17.99
2018-05-31T19:18:05.208Z,17.96
2018-05-31T19:20:32.655Z,17.89
2018-05-31T19:23:00.131Z,17.73
2018-05-31T19:25:27.558Z,17.60
2018-05-31T19:27:55.111Z,17.57
2018-05-31T19:30:28.133Z,17.55
2018-05-31T19:32:55.562Z,17.53
2018-05-31T19:35:28.483Z,17.44
2018-05-31T19:37:55.937Z,17.36
2018-05-31T19:40:25.278Z,17.33
2018-05-31T19:42:58.375Z,17.33
2018-05-31T19:45:25.844Z,17.32
2018-05-31T19:47:53.341Z,17.35
2018-05-31T19:50:20.828Z,17.31
2018-05-31T19:52:57.767Z,17.35
2018-05-31T19:55:25.241Z,17.30
2018-05-31T19:57:58.288Z,17.32
2018-05-31T20:00:31.860Z,17.35
2018-05-31T20:03:06.022Z,17.33
2018-05-31T20:05:33.536Z,17.36
2018-05-31T20:08:02.453Z,17.43
2018-05-31T20:10:29.956Z,17.50
2018-05-31T20:12:57.451Z,17.58
2018-05-31T20:15:24.894Z,17.68
2018-05-31T20:17:52.359Z,17.73
2018-05-31T20:20:19.879Z,17.72
2018-05-31T20:22:47.306Z,17.73
2018-05-31T20:25:14.754Z,17.73
2018-05-31T20:27:42.221Z,17.71
2018-05-31T20:30:09.660Z,17.67
2018-05-31T20:32:38.261Z,17.60
2018-05-31T20:35:05.772Z,17.47
2018-05-31T20:37:33.273Z,17.39
2018-05-31T20:40:00.756Z,17.32
2018-05-31T20:42:28.285Z,17.15
2018-05-31T20:44:55.720Z,17.16
2018-05-31T20:47:23.143Z,17.19
2018-05-31T20:49:51.768Z,17.18
2018-05-31T20:52:19.224Z,17.26
2018-05-31T20:54:46.778Z,17.30
2018-05-31T20:57:14.244Z,17.38
2018-05-31T20:59:41.691Z,17.45
2018-05-31T21:02:09.984Z,17.50
2018-05-31T21:04:37.397Z,17.53
2018-05-31T21:07:04.942Z,17.57
2018-05-31T21:09:32.478Z,17.50
2018-05-31T21:12:00.006Z,17.46
2018-05-31T21:14:27.410Z,17.40
2018-05-31T21:16:54.863Z,17.46
2018-05-31T21:19:22.336Z,17.47
2018-05-31T21:21:50.715Z,17.43
2018-05-31T21:24:18.154Z,17.36
2018-05-31T21:26:45.619Z,17.32
2018-05-31T21:29:13.273Z,17.36
2018-05-31T21:31:40.696Z,17.40
2018-05-31T21:34:11.332Z,17.42
2018-05-31T21:36:38.756Z,17.48
2018-05-31T21:39:06.184Z,17.49
2018-05-31T21:41:34.333Z,17.48
2018-05-31T21:44:01.813Z,17.48
2018-05-31T21:46:29.261Z,17.45
2018-05-31T21:48:58.099Z,17.38
2018-05-31T21:51:26.335Z,17.33
2018-05-31T21:53:53.747Z,17.30
2018-05-31T21:56:21.139Z,17.32
2018-05-31T21:58:48.585Z,17.31
2018-05-31T22:03:54.347Z,17.26
2018-05-31T22:06:21.792Z,17.23
2018-05-31T22:08:49.292Z,17.24
2018-05-31T22:11:16.996Z,17.21
2018-05-31T22:13:45.370Z,17.11
2018-05-31T22:16:12.890Z,16.87
2018-05-31T22:18:40.343Z,16.74
2018-05-31T22:21:07.798Z,16.75
2018-05-31T22:23:35.804Z,16.83
2018-05-31T22:26:05.348Z,16.80
2018-05-31T22:28:32.994Z,16.77
2018-05-31T22:31:00.436Z,16.78
2018-05-31T22:33:27.967Z,16.76
2018-05-31T22:35:55.410Z,16.70
2018-05-31T22:38:22.904Z,16.80
2018-05-31T22:40:51.329Z,16.80
2018-05-31T22:43:18.889Z,16.79
2018-05-31T22:45:48.331Z,16.82
2018-05-31T22:48:15.824Z,16.82
2018-05-31T22:50:43.624Z,16.84
2018-05-31T22:53:11.136Z,16.88
2018-05-31T22:55:38.620Z,16.90
2018-05-31T22:58:06.107Z,16.96
2018-05-31T23:00:33.551Z,16.99
2018-05-31T23:03:01.131Z,17.02
2018-05-31T23:05:28.920Z,17.03
2018-05-31T23:07:56.938Z,17.03
2018-05-31T23:10:24.407Z,17.01
2018-05-31T23:12:53.885Z,16.99
2018-05-31T23:15:21.497Z,16.94
2018-05-31T23:17:51.557Z,16.92
2018-05-31T23:20:19.032Z,16.81
2018-05-31T23:22:46.495Z,16.75
2018-05-31T23:25:14.009Z,16.69
2018-05-31T23:27:41.443Z,16.56
2018-05-31T23:30:08.859Z,16.61
2018-05-31T23:32:36.331Z,16.63
2018-05-31T23:35:03.790Z,16.56
2018-05-31T23:37:31.269Z,16.46
2018-05-31T23:39:58.681Z,16.49
2018-05-31T23:42:26.145Z,16.44
2018-05-31T23:44:53.579Z,16.44
2018-05-31T23:47:21.033Z,16.43
2018-05-31T23:49:49.069Z,16.45
2018-05-31T23:52:16.609Z,16.51
2018-05-31T23:54:44.151Z,16.51
2018-05-31T23:57:11.598Z,16.40
2018-05-31T23:59:39.616Z,16.34
